createdAt,value
2023-04-23T00:02:03.006Z,7.38
2023-04-23T00:05:10.506Z,7.93
2023-04-23T00:08:19.457Z,9.00
2023-04-23T00:11:25.137Z,7.90
2023-04-23T00:14:32.140Z,7.20
2023-04-23T00:17:37.823Z,8.23
2023-04-23T00:20:45.012Z,8.05
2023-04-23T00:23:53.160Z,7.90
2023-04-23T00:27:00.090Z,8.20
2023-04-23T00:30:05.538Z,10.27
2023-04-23T00:33:10.907Z,8.30
2023-04-23T00:36:16.623Z,10.63
2023-04-23T00:39:24.302Z,11.32
2023-04-23T00:42:29.753Z,9.27
2023-04-23T00:45:35.195Z,7.75
2023-04-23T00:48:42.107Z,8.40
2023-04-23T00:51:47.616Z,9.95
2023-04-23T00:54:55.585Z,10.30
2023-04-23T00:58:01.046Z,9.70
2023-04-23T01:01:07.372Z,9.30
2023-04-23T01:04:14.193Z,11.05
2023-04-23T01:07:24.434Z,8.40
2023-04-23T01:10:32.858Z,11.68
2023-04-23T01:13:38.679Z,11.38
2023-04-23T01:16:43.893Z,9.07
2023-04-23T01:19:50.286Z,10.25
2023-04-23T01:22:58.000Z,11.32
2023-04-23T01:26:03.464Z,12.13
2023-04-23T01:29:08.559Z,10.48
2023-04-23T01:32:15.538Z,13.70
2023-04-23T01:35:22.768Z,9.05
2023-04-23T01:38:36.717Z,12.02
2023-04-23T01:41:42.181Z,10.43
2023-04-23T01:44:47.559Z,8.63
2023-04-23T01:47:54.226Z,10.20
2023-04-23T01:50:59.775Z,9.05
2023-04-23T01:54:09.595Z,9.73
2023-04-23T01:57:15.460Z,9.63
2023-04-23T02:00:20.983Z,10.43
2023-04-23T02:03:28.663Z,11.63
2023-04-23T02:06:33.810Z,10.38
2023-04-23T02:09:42.173Z,11.95
2023-04-23T02:12:47.811Z,8.65
2023-04-23T02:15:53.186Z,11.98
2023-04-23T02:18:58.262Z,11.18
2023-04-23T02:22:03.773Z,10.82
2023-04-23T02:25:12.294Z,10.35
2023-04-23T02:28:20.260Z,10.52
2023-04-23T02:31:27.730Z,10.98
2023-04-23T02:34:33.284Z,12.43
2023-04-23T02:37:38.422Z,11.93
2023-04-23T02:40:46.526Z,12.25
2023-04-23T02:43:56.379Z,10.77
2023-04-23T02:47:03.409Z,9.90
2023-04-23T02:50:11.605Z,11.27
2023-04-23T02:53:17.052Z,9.85
2023-04-23T02:56:24.615Z,11.25
2023-04-23T02:59:30.283Z,9.18
2023-04-23T03:02:35.381Z,10.48
2023-04-23T03:05:40.847Z,11.13
2023-04-23T03:08:46.288Z,10.35
2023-04-23T03:11:54.195Z,10.68
2023-04-23T03:14:59.217Z,12.00
2023-04-23T03:18:04.733Z,14.10
2023-04-23T03:21:09.862Z,13.65
2023-04-23T03:24:19.811Z,11.20
2023-04-23T03:27:27.790Z,11.07
2023-04-23T03:30:33.482Z,12.77
2023-04-23T03:33:38.502Z,12.07
2023-04-23T03:36:48.890Z,10.50
2023-04-23T03:39:54.321Z,14.68
2023-04-23T03:43:02.436Z,10.57
2023-04-23T03:46:07.720Z,11.35
2023-04-23T03:49:15.307Z,11.57
2023-04-23T03:52:21.045Z,10.20
2023-04-23T03:55:27.407Z,15.13
2023-04-23T03:58:35.007Z,10.38
2023-04-23T04:01:40.383Z,12.73
2023-04-23T04:04:46.782Z,11.23
2023-04-23T04:07:52.680Z,13.13
2023-04-23T04:10:57.676Z,13.57
2023-04-23T04:14:05.621Z,12.45
2023-04-23T04:17:15.197Z,12.00
2023-04-23T04:20:21.952Z,12.05
2023-04-23T04:23:27.116Z,10.35
2023-04-23T04:26:32.978Z,10.05
2023-04-23T04:29:41.061Z,11.88
2023-04-23T04:32:46.620Z,13.15
2023-04-23T04:35:52.185Z,11.50
2023-04-23T04:38:58.507Z,12.93
2023-04-23T04:42:03.532Z,13.82
2023-04-23T04:45:14.313Z,11.00
2023-04-23T04:48:21.474Z,13.80
2023-04-23T04:51:27.347Z,15.25
2023-04-23T04:54:32.316Z,11.88
2023-04-23T04:57:41.006Z,12.07
2023-04-23T05:00:49.318Z,13.68
2023-04-23T05:03:54.830Z,12.27
2023-04-23T05:07:00.064Z,11.70
2023-04-23T05:10:05.744Z,11.75
2023-04-23T05:13:12.521Z,14.23
2023-04-23T05:16:20.577Z,12.32
2023-04-23T05:19:25.582Z,10.50
2023-04-23T05:22:30.995Z,14.93
2023-04-23T05:25:36.273Z,12.18
2023-04-23T05:28:41.846Z,10.48
2023-04-23T05:31:51.913Z,11.95
2023-04-23T05:35:00.199Z,13.05
2023-04-23T05:38:06.546Z,11.82
2023-04-23T05:41:11.960Z,12.43
2023-04-23T05:44:20.528Z,10.73
2023-04-23T05:47:30.647Z,11.43
2023-04-23T05:50:35.665Z,12.35
2023-04-23T05:53:40.994Z,10.93
2023-04-23T05:56:48.475Z,11.88
2023-04-23T05:59:56.951Z,9.73
2023-04-23T06:03:04.633Z,11.18
2023-04-23T06:06:10.320Z,12.25
2023-04-23T06:09:16.936Z,9.98
2023-04-23T06:12:22.314Z,14.60
2023-04-23T06:15:27.670Z,9.40
2023-04-23T06:18:35.611Z,12.43
2023-04-23T06:21:41.977Z,10.43
2023-04-23T06:24:47.492Z,10.40
2023-04-23T06:27:52.532Z,12.10
2023-04-23T06:30:57.969Z,12.82
2023-04-23T06:34:05.610Z,14.35
2023-04-23T06:37:11.734Z,10.80
2023-04-23T06:40:19.421Z,12.68
2023-04-23T06:43:25.020Z,11.40
2023-04-23T06:46:30.305Z,13.27
2023-04-23T06:49:41.387Z,11.00
2023-04-23T06:52:46.367Z,12.80
2023-04-23T06:55:53.167Z,11.50
2023-04-23T06:58:58.158Z,10.18
2023-04-23T07:02:03.611Z,10.45
2023-04-23T07:05:11.985Z,10.70
2023-04-23T07:08:17.483Z,9.98
2023-04-23T07:11:22.550Z,11.55
2023-04-23T07:14:28.509Z,10.23
2023-04-23T07:17:34.002Z,12.63
2023-04-23T07:20:41.984Z,9.18
2023-04-23T07:23:49.416Z,9.85
2023-04-23T07:26:55.157Z,9.50
2023-04-23T07:30:02.049Z,10.18
2023-04-23T07:33:09.214Z,11.10
2023-04-23T07:36:19.790Z,10.25
2023-04-23T07:42:34.807Z,11.75
2023-04-23T07:45:42.538Z,11.52
2023-04-23T07:48:48.359Z,8.32
2023-04-23T07:51:57.479Z,10.77
2023-04-23T07:55:02.595Z,9.07
2023-04-23T07:58:08.464Z,8.98
2023-04-23T08:01:15.818Z,9.32
2023-04-23T08:04:42.466Z,9.27
2023-04-23T08:08:13.128Z,8.05
2023-04-23T08:11:24.775Z,8.20
2023-04-23T08:15:03.232Z,10.20
2023-04-23T08:18:11.670Z,18.10
2023-04-23T08:21:17.099Z,8.32
2023-04-23T08:24:25.226Z,8.95
2023-04-23T08:27:30.713Z,18.23
2023-04-23T08:30:38.762Z,9.88
2023-04-23T08:33:44.887Z,8.73
2023-04-23T08:36:50.493Z,9.23
2023-04-23T08:39:58.179Z,7.88
2023-04-23T08:43:06.651Z,9.85
2023-04-23T08:46:14.920Z,10.07
2023-04-23T08:49:21.021Z,9.13
2023-04-23T08:52:33.578Z,8.50
2023-04-23T08:55:44.199Z,9.13
2023-04-23T08:58:50.530Z,8.20
2023-04-23T09:01:57.009Z,8.18
2023-04-23T09:05:02.428Z,10.07
2023-04-23T09:08:10.298Z,11.68
2023-04-23T09:11:20.636Z,9.82
2023-04-23T09:14:26.480Z,10.95
2023-04-23T09:17:32.477Z,9.10
2023-04-23T09:20:37.977Z,7.18
2023-04-23T09:23:44.277Z,8.10
2023-04-23T09:26:55.710Z,6.55
2023-04-23T09:30:03.357Z,12.57
2023-04-23T09:33:08.764Z,7.15
2023-04-23T09:36:14.095Z,9.70
2023-04-23T09:39:20.151Z,6.70
2023-04-23T09:49:20.498Z,8.73
2023-04-23T09:52:36.300Z,6.22
2023-04-23T09:55:52.769Z,7.32
2023-04-23T09:59:46.797Z,7.55
2023-04-23T10:03:15.644Z,8.05
2023-04-23T10:06:40.696Z,6.95
2023-04-23T10:09:52.941Z,5.00
2023-04-23T10:13:02.297Z,7.78
2023-04-23T10:16:22.219Z,5.32
2023-04-23T10:19:32.605Z,7.43
2023-04-23T10:22:41.469Z,4.88
2023-04-23T10:25:46.544Z,5.32
2023-04-23T10:28:53.540Z,5.85
2023-04-23T10:32:02.670Z,5.80
2023-04-23T10:35:10.973Z,7.03
2023-04-23T10:38:16.645Z,5.22
2023-04-23T10:41:28.206Z,5.43
2023-04-23T10:47:49.801Z,4.50
2023-04-23T10:54:14.251Z,5.63
2023-04-23T10:57:33.806Z,6.13
2023-04-23T11:00:47.898Z,6.25
2023-04-23T11:03:55.741Z,8.13
2023-04-23T11:07:01.679Z,6.35
2023-04-23T11:10:15.453Z,5.97
2023-04-23T11:13:26.700Z,4.68
2023-04-23T11:16:31.769Z,5.93
2023-04-23T11:19:48.064Z,4.60
2023-04-23T11:22:53.673Z,7.43
2023-04-23T11:25:59.160Z,5.47
2023-04-23T11:29:04.464Z,6.63
2023-04-23T11:32:11.103Z,5.82
2023-04-23T11:35:20.429Z,10.38
2023-04-23T11:38:26.468Z,9.30
2023-04-23T11:41:33.605Z,9.57
2023-04-23T11:44:41.437Z,11.00
2023-04-23T11:47:47.580Z,9.65
2023-04-23T11:50:56.788Z,8.90
2023-04-23T11:54:06.395Z,9.82
2023-04-23T11:57:12.127Z,17.95
2023-04-23T12:00:19.314Z,12.35
2023-04-23T12:03:30.586Z,14.68
2023-04-23T12:06:40.044Z,12.70
2023-04-23T12:09:55.907Z,10.75
2023-04-23T12:13:01.618Z,12.25
2023-04-23T12:16:10.413Z,11.65
2023-04-23T12:19:19.527Z,12.70
2023-04-23T12:22:32.312Z,12.70
2023-04-23T12:25:37.714Z,14.68
2023-04-23T12:28:49.319Z,14.75
2023-04-23T12:31:55.180Z,12.32
2023-04-23T12:35:00.576Z,15.43
2023-04-23T12:38:10.020Z,14.02
2023-04-23T12:41:20.938Z,15.45
2023-04-23T12:44:26.701Z,12.50
2023-04-23T12:47:32.622Z,18.55
2023-04-23T12:50:38.292Z,13.95
2023-04-23T12:53:46.754Z,10.35
2023-04-23T12:56:51.982Z,13.45
2023-04-23T12:59:58.124Z,10.50
2023-04-23T13:03:03.841Z,11.60
2023-04-23T13:06:12.544Z,9.00
2023-04-23T13:09:28.743Z,9.38
2023-04-23T13:12:41.759Z,11.50
2023-04-23T13:16:11.382Z,11.10
2023-04-23T13:19:31.434Z,14.93
2023-04-23T13:26:21.228Z,13.52
2023-04-23T13:29:59.674Z,15.73
2023-04-23T13:36:37.628Z,10.15
2023-04-23T13:39:43.697Z,14.23
2023-04-23T13:42:53.448Z,15.02
2023-04-23T13:46:24.043Z,15.35
2023-04-23T13:49:51.423Z,17.35
2023-04-23T13:53:21.448Z,14.77
2023-04-23T13:56:37.424Z,15.75
2023-04-23T14:00:00.743Z,12.68
2023-04-23T14:03:16.709Z,10.65
2023-04-23T14:06:24.086Z,12.27
2023-04-23T14:09:30.254Z,10.43
2023-04-23T14:12:35.384Z,10.80
2023-04-23T14:15:48.362Z,11.70
2023-04-23T14:18:53.900Z,9.55
2023-04-23T14:21:59.590Z,12.30
2023-04-23T14:25:05.595Z,14.45
2023-04-23T14:28:31.758Z,14.90
2023-04-23T14:31:48.224Z,12.63
2023-04-23T14:34:59.518Z,11.82
2023-04-23T14:38:07.215Z,9.75
2023-04-23T14:44:45.971Z,12.02
2023-04-23T14:48:04.094Z,11.98
2023-04-23T14:51:34.987Z,10.57
2023-04-23T14:54:46.554Z,12.15
2023-04-23T14:58:08.613Z,14.85
2023-04-23T15:01:35.227Z,10.95
2023-04-23T15:04:56.271Z,9.45
2023-04-23T15:08:46.281Z,10.15
2023-04-23T15:23:15.559Z,11.50
2023-04-23T15:26:20.832Z,8.52
2023-04-23T15:29:26.376Z,9.02
2023-04-23T15:32:31.403Z,9.18
2023-04-23T15:35:38.232Z,9.43
2023-04-23T15:38:56.356Z,8.70
2023-04-23T15:42:03.638Z,9.27
2023-04-23T15:45:09.381Z,8.35
2023-04-23T15:48:16.343Z,5.82
2023-04-23T15:51:21.669Z,8.50
2023-04-23T15:54:34.354Z,9.50
2023-04-23T15:57:39.694Z,6.88
2023-04-23T16:00:45.235Z,11.85
2023-04-23T16:07:06.915Z,8.50
2023-04-23T16:10:16.044Z,9.30
2023-04-23T16:13:23.811Z,9.60
2023-04-23T16:16:30.853Z,10.32
2023-04-23T16:19:36.291Z,11.65
2023-04-23T16:22:45.518Z,11.40
2023-04-23T16:25:56.127Z,11.15
2023-04-23T16:32:09.772Z,12.48
2023-04-23T16:35:14.827Z,10.82
2023-04-23T16:38:21.341Z,9.23
2023-04-23T16:41:29.375Z,9.98
2023-04-23T16:44:37.922Z,10.00
2023-04-23T16:47:43.779Z,10.25
2023-04-23T16:50:50.068Z,10.43
2023-04-23T16:53:57.856Z,9.77
2023-04-23T16:57:09.971Z,9.05
2023-04-23T17:00:18.627Z,8.33
2023-04-23T17:03:24.368Z,8.40
2023-04-23T17:06:30.215Z,9.73
2023-04-23T17:17:28.271Z,12.13
2023-04-23T17:20:51.405Z,10.82
2023-04-23T17:24:14.163Z,8.65
2023-04-23T17:27:26.545Z,10.40
2023-04-23T17:30:54.634Z,10.90
2023-04-23T17:34:43.029Z,9.88
2023-04-23T17:41:42.461Z,11.00
2023-04-23T17:44:47.858Z,9.15
2023-04-23T17:47:56.475Z,9.52
2023-04-23T17:51:02.203Z,10.05
2023-04-23T17:54:07.817Z,9.73
2023-04-23T17:57:15.362Z,10.95
2023-04-23T18:00:20.754Z,9.70
2023-04-23T18:03:33.858Z,9.82
2023-04-23T18:06:39.028Z,9.05
2023-04-23T18:09:45.970Z,9.45
2023-04-23T18:12:51.601Z,9.45
2023-04-23T18:15:58.614Z,9.38
2023-04-23T18:19:06.713Z,11.02
2023-04-23T18:22:14.198Z,10.23
2023-04-23T18:25:25.366Z,13.73
2023-04-23T18:28:31.224Z,8.70
2023-04-23T18:31:36.950Z,10.05
2023-04-23T18:34:49.113Z,11.15
2023-04-23T18:37:57.046Z,10.30
2023-04-23T18:41:05.141Z,9.57
2023-04-23T18:44:13.394Z,9.38
2023-04-23T18:47:23.132Z,10.93
2023-04-23T18:50:47.648Z,14.50
2023-04-23T18:53:53.002Z,11.93
2023-04-23T18:56:58.225Z,17.98
2023-04-23T19:03:27.153Z,10.27
2023-04-23T19:06:36.508Z,8.52
2023-04-23T19:09:47.178Z,11.80
2023-04-23T19:12:55.122Z,11.43
2023-04-23T19:16:00.631Z,10.85
2023-04-23T19:19:07.026Z,10.25
2023-04-23T19:22:18.577Z,9.73
2023-04-23T19:25:24.380Z,9.65
2023-04-23T19:28:32.098Z,13.88
2023-04-23T19:31:37.782Z,9.52
2023-04-23T19:34:42.894Z,10.93
2023-04-23T19:37:53.026Z,14.18
2023-04-23T19:41:03.773Z,12.27
2023-04-23T19:44:09.608Z,12.05
2023-04-23T19:47:18.894Z,11.55
2023-04-23T19:50:24.563Z,14.20
2023-04-23T19:53:39.787Z,12.45
2023-04-23T19:56:51.604Z,14.52
2023-04-23T19:59:59.278Z,13.35
2023-04-23T20:03:06.081Z,15.98
2023-04-23T20:06:11.164Z,16.60
2023-04-23T20:09:25.379Z,20.05
2023-04-23T20:12:30.475Z,21.30
2023-04-23T20:15:36.941Z,15.23
2023-04-23T20:18:45.672Z,16.77
2023-04-23T20:21:52.159Z,18.25
2023-04-23T20:25:02.122Z,15.75
2023-04-23T20:28:09.223Z,16.90
2023-04-23T20:31:14.560Z,19.42
2023-04-23T20:34:20.048Z,14.63
2023-04-23T20:37:27.551Z,15.35
2023-04-23T20:40:39.025Z,14.80
2023-04-23T20:43:45.640Z,13.93
2023-04-23T20:46:51.671Z,15.90
2023-04-23T20:49:57.971Z,13.70
2023-04-23T20:53:05.164Z,13.50
2023-04-23T20:56:15.607Z,13.75
2023-04-23T20:59:22.303Z,13.73
2023-04-23T21:02:27.616Z,12.48
2023-04-23T21:05:37.821Z,15.25
2023-04-23T21:08:43.096Z,13.57
2023-04-23T21:11:51.276Z,14.10
2023-04-23T21:14:56.929Z,12.70
2023-04-23T21:18:02.874Z,13.93
2023-04-23T21:21:08.350Z,13.80
2023-04-23T21:24:14.013Z,11.65
2023-04-23T21:27:27.592Z,13.38
2023-04-23T21:30:39.543Z,16.40
2023-04-23T21:33:44.662Z,15.93
2023-04-23T21:36:50.001Z,17.05
2023-04-23T21:39:55.998Z,15.27
2023-04-23T21:43:04.276Z,15.07
2023-04-23T21:46:09.818Z,13.02
2023-04-23T21:49:15.156Z,18.45
2023-04-23T21:52:20.532Z,15.27
2023-04-23T21:55:25.898Z,17.20
2023-04-23T21:58:35.409Z,15.90
2023-04-23T22:01:42.394Z,14.85
2023-04-23T22:04:47.561Z,18.60
2023-04-23T22:07:55.516Z,18.77
2023-04-23T22:11:03.203Z,16.77
2023-04-23T22:14:11.573Z,16.55
2023-04-23T22:17:20.400Z,21.98
2023-04-23T22:20:27.340Z,21.58
2023-04-23T22:23:32.362Z,19.23
2023-04-23T22:26:40.488Z,18.95
2023-04-23T22:29:48.071Z,21.08
2023-04-23T22:32:56.008Z,17.02
2023-04-23T22:36:01.501Z,21.92
2023-04-23T22:39:07.656Z,26.30
2023-04-23T22:42:12.673Z,23.55
2023-04-23T22:45:24.935Z,32.08
2023-04-23T22:48:33.302Z,22.95
2023-04-23T22:51:40.071Z,24.60
2023-04-23T22:54:45.215Z,24.58
2023-04-23T22:57:50.546Z,23.00
2023-04-23T23:00:58.776Z,23.30
2023-04-23T23:04:04.541Z,25.08
2023-04-23T23:07:10.278Z,23.60
2023-04-23T23:10:15.843Z,22.48
2023-04-23T23:13:20.902Z,25.73
2023-04-23T23:16:30.722Z,22.17
2023-04-23T23:19:35.944Z,28.38
2023-04-23T23:22:42.538Z,26.95
2023-04-23T23:25:47.554Z,22.73
2023-04-23T23:28:54.065Z,25.80
2023-04-23T23:32:02.377Z,26.42
2023-04-23T23:35:09.544Z,25.80
2023-04-23T23:38:14.954Z,27.33
2023-04-23T23:41:20.505Z,24.38
2023-04-23T23:44:25.504Z,25.25
2023-04-23T23:47:34.938Z,23.75
2023-04-23T23:50:40.420Z,23.15
2023-04-23T23:53:46.232Z,22.80
2023-04-23T23:56:51.429Z,19.23
2023-04-23T23:59:57.237Z,19.20
